Time;durP1;ratioP1;P1;durP2;ratioP2;P2;SDS_P1;SDS_P2;PMS_P1;PMS_P2;Temp;Humidity;BMP_temperature;BMP_pressure;BME280_temperature;BME280_humidity;BME280_pressure;Samples;Min_cycle;Max_cycle;Signal;HPM_P1;HPM_P2
2022/04/03 00:00:38;;;;;;;8.87;5.57;;;-2.10;99.90;;;;;;4152821;28;20182;-71
2022/04/03 00:02:38;;;;;;;6.83;5.13;;;-2.00;99.90;;;;;;4162465;28;20456;-72
2022/04/03 00:04:39;;;;;;;7.20;5.13;;;-1.90;99.90;;;;;;4162647;28;20194;-72
2022/04/03 00:06:40;;;;;;;7.47;5.33;;;-1.80;99.90;;;;;;4163491;28;20209;-71
2022/04/03 00:08:40;;;;;;;7.07;4.97;;;-1.70;99.90;;;;;;4161862;28;20175;-72
2022/04/03 00:10:41;;;;;;;7.53;5.13;;;-1.70;99.90;;;;;;4163352;28;20225;-72
2022/04/03 00:12:46;;;;;;;7.07;5.13;;;-1.70;99.90;;;;;;4161193;28;20191;-72
2022/04/03 00:14:46;;;;;;;7.67;5.50;;;-1.70;99.90;;;;;;4162599;28;21035;-72
2022/04/03 00:16:47;;;;;;;8.47;6.30;;;-1.70;99.90;;;;;;4161890;28;20493;-72
2022/04/03 00:18:49;;;;;;;11.33;5.77;;;-1.70;99.90;;;;;;4162731;28;20179;-72
2022/04/03 00:20:50;;;;;;;7.80;5.57;;;-1.60;99.90;;;;;;4162778;28;20713;-72
2022/04/03 00:22:52;;;;;;;8.50;5.67;;;-1.60;99.90;;;;;;4161505;28;20446;-70
2022/04/03 00:24:53;;;;;;;7.67;5.23;;;-1.70;99.90;;;;;;4162257;28;20217;-70
2022/04/03 00:26:54;;;;;;;6.77;4.80;;;-1.70;99.90;;;;;;4161790;28;20457;-73
2022/04/03 00:28:54;;;;;;;8.03;5.70;;;-1.70;99.90;;;;;;4162610;28;20802;-70
2022/04/03 00:30:55;;;;;;;7.10;5.37;;;-1.60;99.90;;;;;;4162723;28;20185;-72
2022/04/03 00:32:56;;;;;;;8.13;6.53;;;-1.70;99.90;;;;;;4160270;28;20194;-72
2022/04/03 00:34:57;;;;;;;7.20;5.67;;;-1.80;99.90;;;;;;4162334;28;20508;-72
2022/04/03 00:36:57;;;;;;;7.23;5.53;;;-1.80;99.90;;;;;;4162836;28;20234;-72
2022/04/03 00:38:59;;;;;;;8.17;5.67;;;-1.60;99.90;;;;;;4162723;28;20181;-72
2022/04/03 00:41:02;;;;;;;7.97;5.37;;;-1.60;99.90;;;;;;4162979;28;20259;-72
2022/04/03 00:43:03;;;;;;;7.93;5.33;;;-1.60;99.90;;;;;;4161905;28;20424;-72
2022/04/03 00:45:05;;;;;;;6.67;5.27;;;-1.70;99.90;;;;;;4163248;28;20424;-72
2022/04/03 00:47:06;;;;;;;7.97;5.43;;;-1.60;99.90;;;;;;4162924;28;20283;-72
2022/04/03 00:49:07;;;;;;;6.27;4.70;;;-1.80;99.90;;;;;;4164506;28;20509;-72
2022/04/03 00:51:07;;;;;;;9.37;5.60;;;-1.70;99.90;;;;;;4161651;28;20452;-71
2022/04/03 00:53:08;;;;;;;8.37;5.67;;;-1.80;99.90;;;;;;4162753;28;20619;-70
2022/04/03 00:55:09;;;;;;;8.00;5.47;;;-1.80;99.90;;;;;;4161856;28;20700;-71
2022/04/03 00:57:11;;;;;;;8.13;5.90;;;-1.80;99.90;;;;;;4162970;28;20692;-72
2022/04/03 00:59:13;;;;;;;6.40;4.77;;;-1.60;99.90;;;;;;4162170;28;20206;-72
2022/04/03 01:01:14;;;;;;;8.57;6.07;;;-1.60;99.90;;;;;;4161537;28;20442;-72
2022/04/03 01:03:15;;;;;;;7.67;5.10;;;-1.70;99.90;;;;;;4160636;28;20423;-72
2022/04/03 01:05:15;;;;;;;12.47;6.50;;;-1.80;99.90;;;;;;4161994;28;20194;-71
2022/04/03 01:07:16;;;;;;;10.67;5.77;;;-1.80;99.90;;;;;;4161221;28;20193;-72
2022/04/03 01:09:17;;;;;;;7.53;5.37;;;-1.70;99.90;;;;;;4161131;28;20677;-72
2022/04/03 01:11:21;;;;;;;8.53;6.40;;;-1.70;99.90;;;;;;4161819;28;20237;-72
2022/04/03 01:13:22;;;;;;;7.50;5.20;;;-1.70;99.90;;;;;;4162494;28;20187;-71
2022/04/03 01:15:22;;;;;;;6.63;5.10;;;-1.80;99.90;;;;;;4145332;28;20471;-71
2022/04/03 01:17:23;;;;;;;8.13;5.47;;;-1.70;99.90;;;;;;4162589;28;20185;-71
2022/04/03 01:19:24;;;;;;;7.20;4.87;;;-1.60;99.90;;;;;;4162469;28;20584;-71
2022/04/03 01:21:25;;;;;;;9.70;7.00;;;-1.60;99.90;;;;;;4161902;28;20435;-72
2022/04/03 01:23:26;;;;;;;8.33;6.00;;;-1.80;99.90;;;;;;4162659;28;20193;-71
2022/04/03 01:25:27;;;;;;;5.87;5.03;;;-1.80;99.90;;;;;;4162233;28;20207;-68
2022/04/03 01:27:27;;;;;;;6.63;5.20;;;-1.70;99.90;;;;;;4162867;28;20208;-71
2022/04/03 01:29:28;;;;;;;6.03;5.07;;;-1.70;99.90;;;;;;4161071;28;20531;-71
2022/04/03 01:31:29;;;;;;;10.23;5.67;;;-1.70;99.90;;;;;;4161961;28;20671;-71
2022/04/03 01:33:29;;;;;;;7.80;5.40;;;-1.80;99.90;;;;;;4160723;28;20693;-71
2022/04/03 01:35:30;;;;;;;7.60;5.53;;;-1.70;99.90;;;;;;4162347;28;20224;-72
2022/04/03 01:37:31;;;;;;;7.67;5.17;;;-1.60;99.90;;;;;;4162548;28;20265;-72
2022/04/03 01:39:31;;;;;;;8.63;5.87;;;-1.70;99.90;;;;;;4162000;28;20182;-72
2022/04/03 01:41:32;;;;;;;8.47;6.40;;;-1.80;99.90;;;;;;4161364;28;20181;-71
2022/04/03 01:43:33;;;;;;;8.43;5.63;;;-1.80;99.90;;;;;;4161863;28;20190;-71
2022/04/03 01:45:35;;;;;;;6.10;4.47;;;-1.80;99.90;;;;;;4161962;28;20658;-71
2022/04/03 01:47:36;;;;;;;7.07;5.63;;;-1.80;99.90;;;;;;4160313;28;20446;-72
2022/04/03 01:49:37;;;;;;;7.47;5.53;;;-1.70;99.90;;;;;;4160729;28;20437;-71
2022/04/03 01:51:38;;;;;;;8.73;6.30;;;-1.70;99.90;;;;;;4161187;28;20486;-71
2022/04/03 01:53:38;;;;;;;9.23;6.00;;;-1.70;99.90;;;;;;4160459;28;20273;-70
2022/04/03 01:55:40;;;;;;;8.97;5.17;;;-1.80;99.90;;;;;;4162149;28;20699;-71
2022/04/03 01:57:40;;;;;;;8.83;6.07;;;-1.70;99.90;;;;;;4162104;28;20247;-72
2022/04/03 01:59:42;;;;;;;9.13;5.73;;;-1.60;99.90;;;;;;4161453;28;20444;-72
2022/04/03 02:01:44;;;;;;;9.33;5.50;;;-1.60;99.90;;;;;;4160554;28;20467;-71
2022/04/03 02:03:46;;;;;;;8.63;5.80;;;-1.70;99.90;;;;;;4160243;28;20196;-72
2022/04/03 02:05:47;;;;;;;7.37;5.43;;;-1.70;99.90;;;;;;4162023;28;20456;-71
2022/04/03 02:07:48;;;;;;;8.27;5.47;;;-1.70;99.90;;;;;;4163811;28;20416;-72
2022/04/03 02:09:48;;;;;;;8.10;6.00;;;-1.80;99.90;;;;;;4164086;28;20182;-71
2022/04/03 02:11:49;;;;;;;9.93;6.93;;;-1.70;99.90;;;;;;4164375;28;20185;-72
2022/04/03 02:13:50;;;;;;;9.47;6.27;;;-1.60;99.90;;;;;;4164770;28;20235;-72
2022/04/03 02:15:51;;;;;;;9.70;5.90;;;-1.60;99.90;;;;;;4165143;28;20605;-71
2022/04/03 02:17:52;;;;;;;9.30;5.90;;;-1.70;99.90;;;;;;4165293;28;20449;-71
2022/04/03 02:19:53;;;;;;;7.80;5.40;;;-1.60;99.90;;;;;;4164048;28;20183;-71
2022/04/03 02:21:53;;;;;;;8.97;5.60;;;-1.60;99.90;;;;;;4164360;28;20181;-71
2022/04/03 02:23:54;;;;;;;9.70;6.23;;;-1.60;99.90;;;;;;4164906;28;20931;-72
2022/04/03 02:25:54;;;;;;;9.77;6.37;;;-1.60;99.90;;;;;;4164271;28;20237;-71
2022/04/03 02:27:56;;;;;;;8.73;6.57;;;-1.50;99.90;;;;;;4164683;28;20182;-72
2022/04/03 02:29:56;;;;;;;7.87;5.50;;;-1.50;99.90;;;;;;4164094;28;20193;-71
2022/04/03 02:31:58;;;;;;;9.90;6.13;;;-1.60;99.90;;;;;;4162379;28;20526;-72
2022/04/03 02:33:59;;;;;;;8.77;6.27;;;-1.60;99.90;;;;;;4164581;28;20208;-72
2022/04/03 02:36:00;;;;;;;8.67;6.40;;;-1.50;99.90;;;;;;4163176;28;20585;-71
2022/04/03 02:38:00;;;;;;;8.40;6.40;;;-1.60;99.90;;;;;;4164857;28;20230;-71
2022/04/03 02:40:04;;;;;;;8.27;5.77;;;-1.60;99.90;;;;;;4163179;28;20193;-71
2022/04/03 02:42:05;;;;;;;7.90;5.63;;;-1.60;99.90;;;;;;4162839;28;20187;-71
2022/04/03 02:44:06;;;;;;;10.03;6.73;;;-1.60;99.90;;;;;;4164447;28;20489;-71
2022/04/03 02:46:07;;;;;;;8.30;6.00;;;-1.60;99.90;;;;;;4164050;28;20206;-71
2022/04/03 02:48:08;;;;;;;8.07;5.73;;;-1.50;99.90;;;;;;4162939;28;20190;-72
2022/04/03 02:50:09;;;;;;;8.50;5.40;;;-1.40;99.90;;;;;;4163092;28;20185;-71
2022/04/03 02:52:09;;;;;;;8.63;6.30;;;-1.40;99.90;;;;;;4161481;28;20535;-72
2022/04/03 02:54:10;;;;;;;9.43;6.50;;;-1.50;99.90;;;;;;4164254;28;20476;-71
2022/04/03 02:56:11;;;;;;;7.37;5.30;;;-1.60;99.90;;;;;;4162804;28;20236;-71
2022/04/03 02:58:11;;;;;;;8.30;5.50;;;-1.50;99.90;;;;;;4163166;28;20190;-72
2022/04/03 03:00:17;;;;;;;7.57;5.97;;;-1.60;99.90;;;;;;4164449;28;20208;-71
2022/04/03 03:02:17;;;;;;;8.80;5.77;;;-1.70;99.90;;;;;;4163389;28;20189;-72
2022/04/03 03:04:18;;;;;;;6.80;5.00;;;-1.60;99.90;;;;;;4164705;28;20435;-71
2022/04/03 03:06:19;;;;;;;8.57;5.97;;;-1.60;99.90;;;;;;4164436;28;20217;-71
2022/04/03 03:08:20;;;;;;;8.33;5.60;;;-1.70;99.90;;;;;;4164253;28;20191;-71
2022/04/03 03:10:23;;;;;;;9.37;5.90;;;-1.60;99.90;;;;;;4163126;28;20212;-71
2022/04/03 03:12:23;;;;;;;8.10;5.80;;;-1.60;99.90;;;;;;4163608;28;20181;-71
2022/04/03 03:14:24;;;;;;;7.27;5.13;;;-1.60;99.90;;;;;;4164110;28;20483;-71
2022/04/03 03:16:25;;;;;;;8.70;5.53;;;-1.60;99.90;;;;;;4164252;28;20202;-71
2022/04/03 03:18:26;;;;;;;13.57;7.20;;;-1.70;99.90;;;;;;4161750;28;20188;-71
2022/04/03 03:20:26;;;;;;;8.57;5.73;;;-1.70;99.90;;;;;;4164225;28;20669;-71
2022/04/03 03:22:27;;;;;;;8.40;6.10;;;-1.60;99.90;;;;;;4163688;28;20457;-72
2022/04/03 03:24:28;;;;;;;9.23;6.20;;;-1.60;99.90;;;;;;4164724;28;20187;-71
2022/04/03 03:26:29;;;;;;;9.07;6.07;;;-1.60;99.90;;;;;;4163875;28;20223;-72
2022/04/03 03:28:29;;;;;;;9.50;5.80;;;-1.60;99.90;;;;;;4163510;28;20226;-71
2022/04/03 03:30:30;;;;;;;9.43;5.93;;;-1.60;99.90;;;;;;4164017;28;20179;-71
2022/04/03 03:32:31;;;;;;;8.73;5.57;;;-1.60;99.90;;;;;;4163183;28;20244;-71
2022/04/03 03:34:31;;;;;;;9.00;5.77;;;-1.60;99.90;;;;;;4164108;28;20228;-71
2022/04/03 03:36:32;;;;;;;8.97;6.23;;;-1.60;99.90;;;;;;4164165;28;20639;-71
2022/04/03 03:38:33;;;;;;;8.30;5.50;;;-1.60;99.90;;;;;;4163804;28;20224;-70
2022/04/03 03:40:38;;;;;;;9.00;5.90;;;-1.60;99.90;;;;;;4164381;28;20666;-71
2022/04/03 03:42:41;;;;;;;8.53;5.87;;;-1.60;99.90;;;;;;4163614;28;20174;-72
2022/04/03 03:44:42;;;;;;;10.70;6.43;;;-1.50;99.90;;;;;;4163402;28;20928;-71
2022/04/03 03:46:43;;;;;;;12.00;6.83;;;-1.50;99.90;;;;;;4163406;28;20502;-71
2022/04/03 03:48:43;;;;;;;11.77;6.53;;;-1.50;99.90;;;;;;4163482;28;20197;-71
2022/04/03 03:50:44;;;;;;;9.07;5.67;;;-1.60;99.90;;;;;;4163428;28;20754;-71
2022/04/03 03:52:45;;;;;;;10.80;6.87;;;-1.60;99.90;;;;;;4162438;28;20199;-71
2022/04/03 03:54:45;;;;;;;9.27;5.90;;;-1.50;99.90;;;;;;4162791;28;20720;-71
2022/04/03 03:56:46;;;;;;;10.17;6.83;;;-1.60;99.90;;;;;;4163759;28;20209;-70
2022/04/03 03:58:47;;;;;;;12.83;7.37;;;-1.70;99.90;;;;;;4163235;28;20621;-71
2022/04/03 04:00:47;;;;;;;13.20;7.57;;;-1.70;99.90;;;;;;4161797;28;20796;-72
2022/04/03 04:02:48;;;;;;;10.90;6.13;;;-1.70;99.90;;;;;;4161231;28;20669;-72
2022/04/03 04:04:49;;;;;;;12.67;6.20;;;-1.80;99.90;;;;;;4163270;28;20326;-71
2022/04/03 04:06:49;;;;;;;9.73;6.83;;;-1.80;99.90;;;;;;4163088;28;20617;-71
2022/04/03 04:08:50;;;;;;;11.27;7.20;;;-1.70;99.90;;;;;;4161541;28;20193;-71
2022/04/03 04:10:51;;;;;;;10.97;7.30;;;-1.70;99.90;;;;;;4162006;28;20243;-71
2022/04/03 04:12:52;;;;;;;8.73;5.77;;;-1.80;99.90;;;;;;4162319;28;20535;-72
2022/04/03 04:14:52;;;;;;;11.70;6.90;;;-1.80;99.90;;;;;;4162767;28;20221;-71
2022/04/03 04:16:53;;;;;;;10.57;6.90;;;-1.70;99.90;;;;;;4161929;28;20231;-72
2022/04/03 04:18:54;;;;;;;9.10;6.30;;;-1.60;99.90;;;;;;4145091;28;20222;-72
2022/04/03 04:20:54;;;;;;;12.53;6.87;;;-1.60;99.90;;;;;;4163049;28;20182;-71
2022/04/03 04:22:55;;;;;;;8.47;5.37;;;-1.60;99.90;;;;;;4162178;28;20181;-72
2022/04/03 04:24:56;;;;;;;11.20;7.37;;;-1.60;99.90;;;;;;4162733;28;20197;-71
2022/04/03 04:26:58;;;;;;;11.77;7.17;;;-1.60;99.90;;;;;;4162734;28;20218;-71
2022/04/03 04:28:58;;;;;;;10.43;6.97;;;-1.70;99.90;;;;;;4161344;28;20189;-71
2022/04/03 04:30:59;;;;;;;9.43;5.70;;;-1.70;99.90;;;;;;4162566;28;20453;-72
2022/04/03 04:33:00;;;;;;;10.83;6.90;;;-1.90;99.90;;;;;;4162061;28;20215;-71
2022/04/03 04:35:00;;;;;;;9.53;6.03;;;-1.80;99.90;;;;;;4162798;28;20218;-72
2022/04/03 04:37:01;;;;;;;11.30;6.60;;;-1.70;99.90;;;;;;4162918;28;20245;-71
2022/04/03 04:39:02;;;;;;;13.57;7.30;;;-1.60;99.90;;;;;;4162923;28;20662;-72
2022/04/03 04:41:04;;;;;;;10.10;6.47;;;-1.60;99.90;;;;;;4160996;28;20771;-71
2022/04/03 04:43:04;;;;;;;10.03;6.80;;;-1.70;99.90;;;;;;4160966;28;20572;-71
2022/04/03 04:45:09;;;;;;;10.23;6.90;;;-1.70;99.90;;;;;;4162457;28;20440;-71
2022/04/03 04:47:10;;;;;;;8.63;6.50;;;-1.80;99.90;;;;;;4162861;28;20212;-71
2022/04/03 04:49:11;;;;;;;12.00;7.47;;;-1.70;99.90;;;;;;4162392;28;20454;-72
2022/04/03 04:51:11;;;;;;;10.50;6.50;;;-1.60;99.90;;;;;;4160871;28;20445;-71
2022/04/03 04:53:12;;;;;;;9.60;6.40;;;-1.70;99.90;;;;;;4162191;28;20587;-71
2022/04/03 04:55:13;;;;;;;9.13;5.93;;;-1.70;99.90;;;;;;4162117;28;20721;-71
2022/04/03 04:57:14;;;;;;;13.20;6.90;;;-1.60;99.90;;;;;;4160861;28;20774;-71
2022/04/03 04:59:14;;;;;;;8.73;5.73;;;-1.70;99.90;;;;;;4161350;28;20235;-71
2022/04/03 05:01:15;;;;;;;11.10;6.60;;;-1.70;99.90;;;;;;4160784;28;20187;-72
2022/04/03 05:03:16;;;;;;;10.70;6.80;;;-1.70;99.90;;;;;;4160951;28;20730;-72
2022/04/03 05:05:19;;;;;;;9.77;6.73;;;-1.60;99.90;;;;;;4162217;28;20473;-72
2022/04/03 05:07:20;;;;;;;11.43;7.40;;;-1.60;99.90;;;;;;4162271;28;20678;-71
2022/04/03 05:09:20;;;;;;;10.27;6.10;;;-1.60;99.90;;;;;;4160790;28;20445;-72
2022/04/03 05:11:22;;;;;;;10.40;7.03;;;-1.60;99.90;;;;;;4160241;28;20509;-72
2022/04/03 05:13:25;;;;;;;14.20;7.53;;;-1.60;99.90;;;;;;4161963;28;20189;-72
2022/04/03 05:15:30;;;;;;;13.23;6.80;;;-1.60;99.90;;;;;;4160822;28;20499;-72
2022/04/03 05:17:30;;;;;;;13.57;7.87;;;-1.60;99.90;;;;;;4162315;28;20438;-72
2022/04/03 05:19:32;;;;;;;10.30;7.53;;;-1.70;99.90;;;;;;4161863;28;20445;-71
2022/04/03 05:21:33;;;;;;;12.07;6.83;;;-1.70;99.90;;;;;;4160212;28;20179;-72
2022/04/03 05:23:34;;;;;;;10.10;6.67;;;-1.70;99.90;;;;;;4161965;28;20439;-72
2022/04/03 05:25:34;;;;;;;13.90;6.83;;;-1.60;99.90;;;;;;4160245;28;20974;-71
2022/04/03 05:27:35;;;;;;;11.97;6.80;;;-1.70;99.90;;;;;;4150845;28;20216;-72
2022/04/03 05:29:35;;;;;;;12.40;7.57;;;-1.70;99.90;;;;;;4161970;28;20189;-72
2022/04/03 05:31:36;;;;;;;11.57;7.53;;;-1.70;99.90;;;;;;4160952;28;20194;-71
2022/04/03 05:33:37;;;;;;;11.03;6.37;;;-1.60;99.90;;;;;;4160408;28;20199;-72
2022/04/03 05:35:38;;;;;;;10.13;7.03;;;-1.80;99.90;;;;;;4161352;28;20597;-72
2022/04/03 05:37:39;;;;;;;10.60;7.23;;;-1.70;99.90;;;;;;4161787;28;20588;-71
2022/04/03 05:39:40;;;;;;;9.70;6.73;;;-1.60;99.90;;;;;;4160587;28;20206;-70
2022/04/03 05:41:40;;;;;;;11.37;7.53;;;-1.50;99.90;;;;;;4160602;28;20655;-70
2022/04/03 05:43:42;;;;;;;11.43;7.90;;;-1.60;99.90;;;;;;4161666;28;20185;-70
2022/04/03 05:45:42;;;;;;;10.43;7.33;;;-1.60;99.90;;;;;;4161821;28;20581;-71
2022/04/03 05:47:43;;;;;;;12.23;7.07;;;-1.60;99.90;;;;;;4160590;28;20425;-70
2022/04/03 05:49:45;;;;;;;9.70;6.33;;;-1.60;99.90;;;;;;4161641;28;20197;-70
2022/04/03 05:51:46;;;;;;;11.07;6.20;;;-1.50;99.90;;;;;;4159396;28;20201;-70
2022/04/03 05:53:46;;;;;;;10.97;7.03;;;-1.50;99.90;;;;;;4157988;28;20455;-72
2022/04/03 05:55:47;;;;;;;10.20;6.43;;;-1.50;99.90;;;;;;4161328;28;20207;-72
2022/04/03 05:57:51;;;;;;;9.50;6.67;;;-1.40;99.90;;;;;;4161359;28;20207;-72
2022/04/03 05:59:51;;;;;;;10.33;6.97;;;-1.40;99.90;;;;;;4161275;28;20186;-71
2022/04/03 06:01:52;;;;;;;8.87;6.30;;;-1.40;99.90;;;;;;4158990;28;20438;-72
2022/04/03 06:03:53;;;;;;;10.07;6.83;;;-1.30;99.90;;;;;;4161364;28;20210;-72
2022/04/03 06:05:53;;;;;;;10.43;6.57;;;-1.30;99.90;;;;;;4160239;28;20333;-72
2022/04/03 06:07:54;;;;;;;11.67;6.77;;;-1.20;99.90;;;;;;4160222;28;20195;-72
2022/04/03 06:09:55;;;;;;;13.80;8.53;;;-1.10;99.90;;;;;;4161370;28;20236;-72
2022/04/03 06:11:55;;;;;;;11.13;6.27;;;-1.30;99.90;;;;;;4160664;28;20183;-72
2022/04/03 06:13:56;;;;;;;9.40;6.23;;;-1.20;99.90;;;;;;4161628;28;20190;-71
2022/04/03 06:15:57;;;;;;;10.57;7.03;;;-1.00;99.90;;;;;;4161490;28;20299;-72
2022/04/03 06:17:57;;;;;;;9.63;6.20;;;-0.90;99.90;;;;;;4160301;28;20637;-72
2022/04/03 06:19:58;;;;;;;9.87;6.63;;;-0.80;99.90;;;;;;4161441;28;20534;-72
2022/04/03 06:21:58;;;;;;;12.67;7.33;;;-0.60;99.90;;;;;;4160789;28;20189;-72
2022/04/03 06:23:59;;;;;;;13.40;8.27;;;-0.70;99.90;;;;;;4161568;28;20181;-71
2022/04/03 06:26:00;;;;;;;11.80;8.10;;;-0.80;99.90;;;;;;4161096;28;20299;-71
2022/04/03 06:28:01;;;;;;;9.77;6.90;;;-0.80;99.90;;;;;;4161170;28;20204;-71
2022/04/03 06:30:01;;;;;;;9.00;6.23;;;-0.90;99.90;;;;;;4160968;28;20262;-72
2022/04/03 06:32:03;;;;;;;9.77;6.83;;;-0.80;99.90;;;;;;4159420;28;20184;-71
2022/04/03 06:34:04;;;;;;;8.83;6.23;;;-0.70;99.90;;;;;;4160947;28;20251;-71
2022/04/03 06:36:06;;;;;;;9.17;7.20;;;-0.80;99.90;;;;;;4161131;28;20541;-71
2022/04/03 06:38:06;;;;;;;9.17;6.07;;;-0.80;99.90;;;;;;4160026;28;20180;-71
2022/04/03 06:40:08;;;;;;;10.40;7.33;;;-0.70;99.90;;;;;;4159589;28;20481;-71
2022/04/03 06:42:09;;;;;;;10.20;6.33;;;-0.70;99.90;;;;;;4160150;28;20188;-71
2022/04/03 06:44:10;;;;;;;9.63;6.50;;;-0.60;99.90;;;;;;4160905;28;20526;-71
2022/04/03 06:46:11;;;;;;;10.77;5.77;;;-0.50;99.90;;;;;;4161036;28;20311;-71
2022/04/03 06:48:11;;;;;;;10.03;6.40;;;-0.40;99.90;;;;;;4161172;28;20195;-71
2022/04/03 06:50:13;;;;;;;9.20;5.67;;;-0.60;99.90;;;;;;4160018;28;20189;-71
2022/04/03 06:52:13;;;;;;;11.17;6.17;;;-0.50;99.90;;;;;;4160593;28;20247;-71
2022/04/03 06:54:14;;;;;;;10.20;5.70;;;-0.40;99.90;;;;;;4163277;28;20478;-72
2022/04/03 06:56:15;;;;;;;8.73;5.20;;;-0.40;99.90;;;;;;4162980;28;20212;-71
2022/04/03 06:58:15;;;;;;;8.87;6.07;;;-0.30;99.90;;;;;;4164145;28;20189;-71
2022/04/03 07:00:17;;;;;;;8.00;6.20;;;-0.10;99.90;;;;;;4162801;28;20222;-71
2022/04/03 07:02:17;;;;;;;7.67;5.50;;;0.10;99.90;;;;;;4174248;28;20684;-71
2022/04/03 07:04:18;;;;;;;8.00;5.23;;;0.20;99.90;;;;;;4179283;28;20427;-71
2022/04/03 07:06:19;;;;;;;9.27;4.93;;;0.00;99.90;;;;;;4180745;28;20208;-72
2022/04/03 07:08:19;;;;;;;9.17;5.70;;;-0.10;99.90;;;;;;4179019;28;20713;-71
2022/04/03 07:10:20;;;;;;;7.70;5.83;;;0.10;99.90;;;;;;4179033;28;20187;-72
2022/04/03 07:12:22;;;;;;;14.87;7.40;;;0.50;99.90;;;;;;4176180;28;20184;-71
2022/04/03 07:14:23;;;;;;;9.90;6.67;;;0.60;99.80;;;;;;4168352;28;20470;-71
2022/04/03 07:16:24;;;;;;;7.50;5.50;;;0.60;98.00;;;;;;4180305;28;20482;-71
2022/04/03 07:18:25;;;;;;;6.93;4.70;;;0.40;99.00;;;;;;4173646;28;20191;-71
2022/04/03 07:20:25;;;;;;;9.60;5.60;;;0.30;99.30;;;;;;4179074;28;20180;-72
2022/04/03 07:22:26;;;;;;;7.50;5.77;;;0.40;99.90;;;;;;4168941;28;20572;-71
2022/04/03 07:24:27;;;;;;;8.00;5.40;;;0.50;99.20;;;;;;4176940;28;20586;-71
2022/04/03 07:26:27;;;;;;;9.03;5.87;;;0.70;98.40;;;;;;4180399;28;20304;-71
2022/04/03 07:28:29;;;;;;;7.40;4.73;;;0.60;96.80;;;;;;4165844;28;20622;-71
2022/04/03 07:30:29;;;;;;;7.43;5.33;;;0.50;97.90;;;;;;4163614;28;20184;-71
2022/04/03 07:32:31;;;;;;;9.23;6.83;;;0.30;99.10;;;;;;4162934;28;20439;-71
2022/04/03 07:34:32;;;;;;;6.97;4.63;;;0.20;99.00;;;;;;4163453;28;20212;-71
2022/04/03 07:36:32;;;;;;;6.47;4.97;;;0.20;99.90;;;;;;4163503;28;20486;-71
2022/04/03 07:38:33;;;;;;;7.00;4.77;;;0.40;99.60;;;;;;4162372;28;20192;-71
2022/04/03 07:40:34;;;;;;;9.17;5.90;;;0.40;99.20;;;;;;4163449;28;20189;-71
2022/04/03 07:42:36;;;;;;;7.77;5.43;;;0.40;99.30;;;;;;4162901;28;20188;-71
2022/04/03 07:44:36;;;;;;;7.73;5.77;;;0.40;98.60;;;;;;4163512;28;20243;-71
2022/04/03 07:46:37;;;;;;;6.93;4.83;;;0.30;99.10;;;;;;4162010;28;20431;-71
2022/04/03 07:48:38;;;;;;;7.60;5.30;;;0.70;98.80;;;;;;4163370;28;20195;-71
2022/04/03 07:50:39;;;;;;;11.00;6.83;;;0.80;98.40;;;;;;4163306;28;20927;-71
2022/04/03 07:52:41;;;;;;;18.27;9.23;;;1.00;97.40;;;;;;4161070;28;20652;-71
2022/04/03 07:54:41;;;;;;;13.87;8.97;;;1.20;96.80;;;;;;4161547;28;20212;-71
2022/04/03 07:56:42;;;;;;;10.97;6.87;;;1.40;95.00;;;;;;4158508;28;20973;-70
2022/04/03 07:58:43;;;;;;;7.97;5.13;;;1.10;95.80;;;;;;4162102;28;20682;-71
2022/04/03 08:00:43;;;;;;;6.20;4.97;;;1.10;97.30;;;;;;4163400;28;20216;-70
2022/04/03 08:02:44;;;;;;;8.63;5.27;;;1.30;96.20;;;;;;4162708;28;20638;-71
2022/04/03 08:04:45;;;;;;;7.67;5.33;;;1.40;95.20;;;;;;4163127;28;20230;-71
2022/04/03 08:06:45;;;;;;;7.77;5.73;;;1.00;96.10;;;;;;4163199;28;20208;-71
2022/04/03 08:08:46;;;;;;;6.20;4.67;;;1.20;96.40;;;;;;4163534;28;20181;-71
2022/04/03 08:10:47;;;;;;;8.40;6.10;;;1.30;95.60;;;;;;4163299;28;20181;-71
2022/04/03 08:12:50;;;;;;;7.20;4.87;;;1.20;96.00;;;;;;4162634;28;20181;-71
2022/04/03 08:14:50;;;;;;;7.73;5.67;;;1.00;97.00;;;;;;4151892;28;20903;-69
2022/04/03 08:16:51;;;;;;;8.53;4.47;;;1.40;95.70;;;;;;4129620;28;20457;-70
2022/04/03 08:18:51;;;;;;;6.27;4.60;;;1.60;94.10;;;;;;4147831;28;20184;-71
2022/04/03 08:20:52;;;;;;;5.50;4.20;;;2.10;91.70;;;;;;4163161;28;20178;-72
2022/04/03 08:22:53;;;;;;;5.77;5.00;;;1.80;92.80;;;;;;4162623;28;20174;-72
2022/04/03 08:24:54;;;;;;;6.60;4.97;;;2.00;92.80;;;;;;4162691;28;20285;-71
2022/04/03 08:26:54;;;;;;;6.00;4.63;;;2.30;92.50;;;;;;4162981;28;20220;-72
2022/04/03 08:28:55;;;;;;;5.93;4.83;;;2.20;91.50;;;;;;4162757;28;20441;-72
2022/04/03 08:30:56;;;;;;;5.67;4.63;;;2.20;91.30;;;;;;4162916;28;20199;-72
2022/04/03 08:32:58;;;;;;;7.10;5.00;;;2.40;91.90;;;;;;4162150;28;20189;-71
2022/04/03 08:34:59;;;;;;;5.90;4.67;;;2.70;90.60;;;;;;4161430;28;20229;-72
2022/04/03 08:37:00;;;;;;;6.27;4.93;;;2.80;90.50;;;;;;4162682;28;20453;-72
2022/04/03 08:39:01;;;;;;;6.77;4.93;;;2.90;89.80;;;;;;4161639;28;20331;-72
2022/04/03 08:41:02;;;;;;;5.10;4.07;;;2.90;89.40;;;;;;4162285;28;20432;-72
2022/04/03 08:43:04;;;;;;;6.40;4.80;;;3.10;90.70;;;;;;4160746;28;20730;-72
2022/04/03 08:45:13;;;;;;;7.17;5.20;;;3.60;87.30;;;;;;4161183;28;20687;-72
2022/04/03 08:47:17;;;;;;;6.37;5.17;;;3.10;88.30;;;;;;4160701;28;20481;-74
2022/04/03 08:49:19;;;;;;;5.97;4.67;;;3.40;89.10;;;;;;4157488;28;20461;-72
2022/04/03 08:51:22;;;;;;;6.93;5.27;;;3.70;87.40;;;;;;4161803;28;20434;-72
2022/04/03 08:53:26;;;;;;;7.70;5.00;;;4.10;82.80;;;;;;4161301;28;21241;-72
2022/04/03 08:55:26;;;;;;;7.20;5.53;;;4.00;82.00;;;;;;4161213;28;20867;-71
2022/04/03 08:57:27;;;;;;;6.93;5.63;;;3.20;79.50;;;;;;4162382;28;20434;-71
2022/04/03 08:59:28;;;;;;;5.80;4.90;;;2.60;85.70;;;;;;4162906;28;20191;-72
2022/04/03 09:01:29;;;;;;;5.77;4.67;;;2.70;90.50;;;;;;4162327;28;20192;-72
2022/04/03 09:03:30;;;;;;;6.23;4.87;;;3.20;89.00;;;;;;4161258;28;20188;-72
2022/04/03 09:05:43;;;;;;;5.83;4.80;;;3.40;86.60;;;;;;4162519;28;20430;-70
2022/04/03 09:07:58;;;;;;;6.20;5.27;;;3.20;86.00;;;;;;4161480;28;20225;-72
2022/04/03 09:10:07;;;;;;;6.03;4.70;;;2.90;87.20;;;;;;4162568;28;20418;-72
2022/04/03 09:12:17;;;;;;;5.97;4.60;;;2.90;88.50;;;;;;4160455;28;20450;-72
2022/04/03 09:14:20;;;;;;;6.83;4.90;;;2.90;88.10;;;;;;4162522;28;20456;-75
2022/04/03 09:16:38;;;;;;;7.17;5.23;;;2.80;89.50;;;;;;4160336;28;20450;-71
2022/04/03 09:18:52;;;;;;;8.80;6.90;;;2.20;88.70;;;;;;4160973;28;20411;-75
2022/04/03 09:20:53;;;;;;;7.03;4.90;;;1.70;91.20;;;;;;4162052;28;20407;-72
2022/04/03 09:22:58;;;;;;;6.63;4.57;;;1.60;92.30;;;;;;4159527;28;20424;-70
2022/04/03 09:24:59;;;;;;;6.57;4.83;;;1.70;92.20;;;;;;4154405;28;20701;-72
2022/04/03 09:27:02;;;;;;;8.47;5.73;;;1.60;92.20;;;;;;4156392;28;20977;-72
2022/04/03 09:29:13;;;;;;;7.77;5.43;;;1.70;91.60;;;;;;4174305;28;20435;-72
2022/04/03 09:31:28;;;;;;;5.93;4.77;;;1.30;91.90;;;;;;4158344;28;20877;-72
2022/04/03 09:33:29;;;;;;;7.10;5.43;;;1.80;93.10;;;;;;4160531;28;20443;-72
2022/04/03 09:36:01;;;;;;;6.60;5.07;;;2.20;91.50;;;;;;4156821;28;20537;-74
2022/04/03 09:38:08;;;;;;;5.67;4.60;;;2.50;90.30;;;;;;4167702;28;20434;-73
2022/04/03 09:40:09;;;;;;;6.23;4.73;;;2.40;88.50;;;;;;4164684;28;20432;-73
2022/04/03 09:42:12;;;;;;;7.20;5.27;;;2.00;90.10;;;;;;4167886;28;20545;-72
2022/04/03 09:44:17;;;;;;;7.23;5.43;;;1.50;92.60;;;;;;4175496;28;20434;-73
2022/04/03 09:46:18;;;;;;;8.17;5.90;;;1.40;93.30;;;;;;4163806;28;20463;-74
2022/04/03 09:48:20;;;;;;;8.60;5.43;;;1.30;92.90;;;;;;4174975;28;20431;-74
2022/04/03 09:50:20;;;;;;;7.07;5.10;;;1.40;94.80;;;;;;4163174;28;20629;-72
2022/04/03 09:52:43;;;;;;;7.17;5.30;;;1.60;93.00;;;;;;4174470;28;20434;-71
2022/04/03 09:54:45;;;;;;;7.50;4.70;;;1.50;92.70;;;;;;4161540;28;20812;-73
2022/04/03 09:56:46;;;;;;;6.77;5.10;;;1.60;94.30;;;;;;4176022;28;20471;-70
2022/04/03 09:58:50;;;;;;;7.83;5.73;;;1.90;91.70;;;;;;4160688;28;21190;-71
2022/04/03 10:00:50;;;;;;;7.97;5.53;;;1.60;92.40;;;;;;4163693;28;20264;-74
2022/04/03 10:02:59;;;;;;;6.03;5.03;;;1.80;92.80;;;;;;4174847;28;20469;-72
2022/04/03 10:05:01;;;;;;;6.30;5.07;;;1.60;92.30;;;;;;4146580;28;20177;-72
2022/04/03 10:07:04;;;;;;;8.60;6.43;;;1.60;91.40;;;;;;4165595;28;20941;-74
2022/04/03 10:09:07;;;;;;;7.83;5.40;;;1.30;92.50;;;;;;4173460;28;20467;-75
2022/04/03 10:11:08;;;;;;;8.07;5.47;;;1.50;93.50;;;;;;4164271;28;20431;-71
2022/04/03 10:13:10;;;;;;;6.07;4.80;;;1.70;93.30;;;;;;4173116;28;20485;-69
2022/04/03 10:15:11;;;;;;;5.90;4.37;;;2.00;91.10;;;;;;4164870;28;20517;-72
2022/04/03 10:17:13;;;;;;;5.40;4.43;;;2.80;90.00;;;;;;4165429;28;20516;-74
2022/04/03 10:19:14;;;;;;;6.40;4.60;;;2.90;87.70;;;;;;4171128;28;20186;-71
2022/04/03 10:21:42;;;;;;;6.47;4.53;;;2.90;87.30;;;;;;4166360;28;20569;-73
2022/04/03 10:23:45;;;;;;;6.20;5.10;;;2.70;88.10;;;;;;4168210;28;20253;-73
2022/04/03 10:25:48;;;;;;;6.60;5.13;;;3.10;84.50;;;;;;4170032;28;20500;-75
2022/04/03 10:27:50;;;;;;;7.53;5.50;;;3.10;82.50;;;;;;4167562;28;20532;-72
2022/04/03 10:29:57;;;;;;;5.30;4.43;;;3.20;81.10;;;;;;4167540;28;20452;-72
2022/04/03 10:32:00;;;;;;;7.00;5.23;;;3.70;79.70;;;;;;4175254;28;20522;-75
2022/04/03 10:34:00;;;;;;;8.20;4.50;;;3.40;79.80;;;;;;4150993;28;20432;-70